sensor_id;sensor_type;location;lat;lon;timestamp;P1;durP1;ratioP1;P2;durP2;ratioP2
27491;SDS011;14927;51.210;6.838;2023-04-15T00:00:10;11.63;;;4.10;;
27491;SDS011;14927;51.210;6.838;2023-04-15T00:02:55;8.38;;;4.57;;
27491;SDS011;14927;51.210;6.838;2023-04-15T00:05:39;9.77;;;4.20;;
27491;SDS011;14927;51.210;6.838;2023-04-15T00:08:24;10.30;;;3.58;;
27491;SDS011;14927;51.210;6.838;2023-04-15T00:11:09;8.65;;;3.67;;
27491;SDS011;14927;51.210;6.838;2023-04-15T00:13:53;9.45;;;3.50;;
27491;SDS011;14927;51.210;6.838;2023-04-15T00:16:38;9.23;;;3.47;;
27491;SDS011;14927;51.210;6.838;2023-04-15T00:19:23;7.93;;;3.40;;
27491;SDS011;14927;51.210;6.838;2023-04-15T00:22:09;12.70;;;3.80;;
27491;SDS011;14927;51.210;6.838;2023-04-15T00:24:54;11.00;;;3.95;;
27491;SDS011;14927;51.210;6.838;2023-04-15T00:27:38;10.40;;;3.92;;
27491;SDS011;14927;51.210;6.838;2023-04-15T00:30:23;8.70;;;4.13;;
27491;SDS011;14927;51.210;6.838;2023-04-15T00:33:09;11.25;;;4.38;;
27491;SDS011;14927;51.210;6.838;2023-04-15T00:35:54;8.35;;;3.90;;
27491;SDS011;14927;51.210;6.838;2023-04-15T00:38:39;12.52;;;4.93;;
27491;SDS011;14927;51.210;6.838;2023-04-15T00:41:23;9.32;;;4.03;;
27491;SDS011;14927;51.210;6.838;2023-04-15T00:44:08;11.38;;;4.05;;
27491;SDS011;14927;51.210;6.838;2023-04-15T00:46:53;11.23;;;4.15;;
27491;SDS011;14927;51.210;6.838;2023-04-15T00:49:38;9.98;;;4.00;;
27491;SDS011;14927;51.210;6.838;2023-04-15T00:52:22;8.60;;;4.10;;
27491;SDS011;14927;51.210;6.838;2023-04-15T00:55:07;8.25;;;4.50;;
27491;SDS011;14927;51.210;6.838;2023-04-15T00:57:52;9.60;;;3.97;;
27491;SDS011;14927;51.210;6.838;2023-04-15T01:00:37;14.10;;;4.78;;
27491;SDS011;14927;51.210;6.838;2023-04-15T01:03:22;11.15;;;4.90;;
27491;SDS011;14927;51.210;6.838;2023-04-15T01:06:06;10.88;;;4.53;;
27491;SDS011;14927;51.210;6.838;2023-04-15T01:08:51;12.48;;;4.85;;
27491;SDS011;14927;51.210;6.838;2023-04-15T01:11:40;11.57;;;4.45;;
27491;SDS011;14927;51.210;6.838;2023-04-15T01:14:24;12.30;;;5.15;;
27491;SDS011;14927;51.210;6.838;2023-04-15T01:17:09;12.40;;;4.65;;
27491;SDS011;14927;51.210;6.838;2023-04-15T01:19:54;11.18;;;4.32;;
27491;SDS011;14927;51.210;6.838;2023-04-15T01:22:42;10.98;;;4.90;;
27491;SDS011;14927;51.210;6.838;2023-04-15T01:25:31;9.80;;;4.85;;
27491;SDS011;14927;51.210;6.838;2023-04-15T01:28:17;12.60;;;5.23;;
27491;SDS011;14927;51.210;6.838;2023-04-15T01:31:05;8.05;;;4.50;;
27491;SDS011;14927;51.210;6.838;2023-04-15T01:33:56;9.05;;;4.57;;
27491;SDS011;14927;51.210;6.838;2023-04-15T01:36:41;11.13;;;4.30;;
27491;SDS011;14927;51.210;6.838;2023-04-15T01:39:26;9.73;;;4.00;;
27491;SDS011;14927;51.210;6.838;2023-04-15T01:42:10;13.70;;;5.13;;
27491;SDS011;14927;51.210;6.838;2023-04-15T01:44:55;13.82;;;4.65;;
27491;SDS011;14927;51.210;6.838;2023-04-15T01:47:39;9.48;;;5.15;;
27491;SDS011;14927;51.210;6.838;2023-04-15T01:50:24;8.18;;;4.60;;
27491;SDS011;14927;51.210;6.838;2023-04-15T01:53:09;13.48;;;4.85;;
27491;SDS011;14927;51.210;6.838;2023-04-15T01:55:54;9.30;;;4.63;;
27491;SDS011;14927;51.210;6.838;2023-04-15T01:58:38;11.13;;;4.65;;
27491;SDS011;14927;51.210;6.838;2023-04-15T02:01:23;8.90;;;4.28;;
27491;SDS011;14927;51.210;6.838;2023-04-15T02:04:09;9.18;;;4.80;;
27491;SDS011;14927;51.210;6.838;2023-04-15T02:06:59;13.90;;;5.50;;
27491;SDS011;14927;51.210;6.838;2023-04-15T02:09:43;10.13;;;4.95;;
27491;SDS011;14927;51.210;6.838;2023-04-15T02:12:28;18.05;;;5.13;;
27491;SDS011;14927;51.210;6.838;2023-04-15T02:15:13;12.30;;;4.47;;
27491;SDS011;14927;51.210;6.838;2023-04-15T02:17:58;11.75;;;5.47;;
27491;SDS011;14927;51.210;6.838;2023-04-15T02:20:43;10.93;;;5.28;;
27491;SDS011;14927;51.210;6.838;2023-04-15T02:23:28;10.30;;;5.40;;
27491;SDS011;14927;51.210;6.838;2023-04-15T02:26:12;12.32;;;5.43;;
27491;SDS011;14927;51.210;6.838;2023-04-15T02:28:57;10.32;;;5.72;;
27491;SDS011;14927;51.210;6.838;2023-04-15T02:31:42;13.32;;;5.20;;
27491;SDS011;14927;51.210;6.838;2023-04-15T02:34:27;11.75;;;4.82;;
27491;SDS011;14927;51.210;6.838;2023-04-15T02:37:12;11.65;;;4.78;;
27491;SDS011;14927;51.210;6.838;2023-04-15T02:39:57;9.43;;;4.85;;
27491;SDS011;14927;51.210;6.838;2023-04-15T02:42:41;12.73;;;5.57;;
27491;SDS011;14927;51.210;6.838;2023-04-15T02:45:26;11.70;;;5.15;;
27491;SDS011;14927;51.210;6.838;2023-04-15T02:48:11;9.52;;;4.70;;
27491;SDS011;14927;51.210;6.838;2023-04-15T02:51:12;11.45;;;5.15;;
27491;SDS011;14927;51.210;6.838;2023-04-15T02:54:04;11.60;;;5.18;;
27491;SDS011;14927;51.210;6.838;2023-04-15T02:56:49;11.90;;;4.72;;
27491;SDS011;14927;51.210;6.838;2023-04-15T02:59:33;11.52;;;5.45;;
27491;SDS011;14927;51.210;6.838;2023-04-15T03:02:18;9.48;;;5.03;;
27491;SDS011;14927;51.210;6.838;2023-04-15T03:05:02;11.55;;;5.10;;
27491;SDS011;14927;51.210;6.838;2023-04-15T03:07:51;10.75;;;4.65;;
27491;SDS011;14927;51.210;6.838;2023-04-15T03:10:36;11.30;;;4.78;;
27491;SDS011;14927;51.210;6.838;2023-04-15T03:13:21;11.45;;;5.20;;
27491;SDS011;14927;51.210;6.838;2023-04-15T03:16:06;9.57;;;5.20;;
27491;SDS011;14927;51.210;6.838;2023-04-15T03:18:52;9.75;;;4.93;;
27491;SDS011;14927;51.210;6.838;2023-04-15T03:21:36;10.07;;;4.72;;
27491;SDS011;14927;51.210;6.838;2023-04-15T03:24:21;13.60;;;5.35;;
27491;SDS011;14927;51.210;6.838;2023-04-15T03:27:05;12.25;;;4.82;;
27491;SDS011;14927;51.210;6.838;2023-04-15T03:29:50;10.85;;;5.32;;
27491;SDS011;14927;51.210;6.838;2023-04-15T03:32:35;9.35;;;5.13;;
27491;SDS011;14927;51.210;6.838;2023-04-15T03:35:20;10.00;;;5.15;;
27491;SDS011;14927;51.210;6.838;2023-04-15T03:38:04;12.57;;;5.32;;
27491;SDS011;14927;51.210;6.838;2023-04-15T03:40:49;9.35;;;4.93;;
27491;SDS011;14927;51.210;6.838;2023-04-15T03:43:34;13.05;;;5.35;;
27491;SDS011;14927;51.210;6.838;2023-04-15T03:46:18;16.10;;;5.82;;
27491;SDS011;14927;51.210;6.838;2023-04-15T03:49:05;11.80;;;5.88;;
27491;SDS011;14927;51.210;6.838;2023-04-15T03:51:50;14.77;;;5.65;;
27491;SDS011;14927;51.210;6.838;2023-04-15T03:54:35;11.52;;;5.82;;
27491;SDS011;14927;51.210;6.838;2023-04-15T03:57:19;12.20;;;6.13;;
27491;SDS011;14927;51.210;6.838;2023-04-15T04:00:04;13.20;;;6.18;;
27491;SDS011;14927;51.210;6.838;2023-04-15T04:02:50;10.02;;;5.47;;
27491;SDS011;14927;51.210;6.838;2023-04-15T04:05:35;10.73;;;5.32;;
27491;SDS011;14927;51.210;6.838;2023-04-15T04:08:21;10.88;;;5.30;;
27491;SDS011;14927;51.210;6.838;2023-04-15T04:11:05;14.52;;;5.80;;
27491;SDS011;14927;51.210;6.838;2023-04-15T04:13:50;12.00;;;5.75;;
27491;SDS011;14927;51.210;6.838;2023-04-15T04:16:35;13.32;;;5.72;;
27491;SDS011;14927;51.210;6.838;2023-04-15T04:19:19;15.38;;;5.20;;
27491;SDS011;14927;51.210;6.838;2023-04-15T04:22:04;11.40;;;5.43;;
27491;SDS011;14927;51.210;6.838;2023-04-15T04:24:49;12.27;;;5.80;;
27491;SDS011;14927;51.210;6.838;2023-04-15T04:27:33;13.32;;;5.95;;
27491;SDS011;14927;51.210;6.838;2023-04-15T04:30:18;12.88;;;5.55;;
27491;SDS011;14927;51.210;6.838;2023-04-15T04:33:03;8.00;;;5.40;;
27491;SDS011;14927;51.210;6.838;2023-04-15T04:35:47;10.20;;;5.15;;
27491;SDS011;14927;51.210;6.838;2023-04-15T04:38:32;12.82;;;5.90;;
27491;SDS011;14927;51.210;6.838;2023-04-15T04:41:17;12.27;;;5.68;;
27491;SDS011;14927;51.210;6.838;2023-04-15T04:44:01;10.25;;;5.65;;
27491;SDS011;14927;51.210;6.838;2023-04-15T04:46:46;11.82;;;5.63;;
27491;SDS011;14927;51.210;6.838;2023-04-15T04:49:31;11.30;;;6.00;;
27491;SDS011;14927;51.210;6.838;2023-04-15T04:52:15;12.07;;;5.78;;
27491;SDS011;14927;51.210;6.838;2023-04-15T04:55:00;16.10;;;6.00;;
27491;SDS011;14927;51.210;6.838;2023-04-15T04:57:45;12.38;;;6.25;;
27491;SDS011;14927;51.210;6.838;2023-04-15T05:00:29;16.02;;;6.10;;
27491;SDS011;14927;51.210;6.838;2023-04-15T05:03:14;10.70;;;6.28;;
27491;SDS011;14927;51.210;6.838;2023-04-15T05:05:59;14.85;;;5.72;;
27491;SDS011;14927;51.210;6.838;2023-04-15T05:08:43;12.43;;;5.97;;
27491;SDS011;14927;51.210;6.838;2023-04-15T05:11:29;14.40;;;6.65;;
27491;SDS011;14927;51.210;6.838;2023-04-15T05:14:14;11.85;;;6.55;;
27491;SDS011;14927;51.210;6.838;2023-04-15T05:16:58;14.02;;;6.35;;
27491;SDS011;14927;51.210;6.838;2023-04-15T05:19:43;9.70;;;5.57;;
27491;SDS011;14927;51.210;6.838;2023-04-15T05:22:28;12.23;;;5.43;;
27491;SDS011;14927;51.210;6.838;2023-04-15T05:25:12;15.07;;;5.68;;
27491;SDS011;14927;51.210;6.838;2023-04-15T05:27:57;11.40;;;6.15;;
27491;SDS011;14927;51.210;6.838;2023-04-15T05:30:42;14.07;;;6.25;;
27491;SDS011;14927;51.210;6.838;2023-04-15T05:33:26;13.30;;;5.93;;
27491;SDS011;14927;51.210;6.838;2023-04-15T05:36:11;13.90;;;6.13;;
27491;SDS011;14927;51.210;6.838;2023-04-15T05:38:55;12.25;;;5.82;;
27491;SDS011;14927;51.210;6.838;2023-04-15T05:41:40;10.90;;;5.78;;
27491;SDS011;14927;51.210;6.838;2023-04-15T05:44:25;14.10;;;5.40;;
27491;SDS011;14927;51.210;6.838;2023-04-15T05:47:09;10.98;;;6.05;;
27491;SDS011;14927;51.210;6.838;2023-04-15T05:49:54;11.73;;;5.97;;
27491;SDS011;14927;51.210;6.838;2023-04-15T05:52:39;12.05;;;6.32;;
27491;SDS011;14927;51.210;6.838;2023-04-15T05:55:23;8.00;;;5.47;;
27491;SDS011;14927;51.210;6.838;2023-04-15T05:58:08;11.23;;;6.35;;
27491;SDS011;14927;51.210;6.838;2023-04-15T06:00:53;14.32;;;6.68;;
27491;SDS011;14927;51.210;6.838;2023-04-15T06:03:37;14.02;;;6.50;;
27491;SDS011;14927;51.210;6.838;2023-04-15T06:06:22;12.32;;;6.03;;
27491;SDS011;14927;51.210;6.838;2023-04-15T06:09:07;9.27;;;6.03;;
27491;SDS011;14927;51.210;6.838;2023-04-15T06:11:52;17.35;;;7.28;;
27491;SDS011;14927;51.210;6.838;2023-04-15T06:14:39;16.65;;;7.40;;
27491;SDS011;14927;51.210;6.838;2023-04-15T06:17:24;9.30;;;6.82;;
27491;SDS011;14927;51.210;6.838;2023-04-15T06:20:09;15.50;;;6.72;;
27491;SDS011;14927;51.210;6.838;2023-04-15T06:22:54;13.73;;;7.78;;
27491;SDS011;14927;51.210;6.838;2023-04-15T06:25:40;13.73;;;8.38;;
27491;SDS011;14927;51.210;6.838;2023-04-15T06:28:25;12.15;;;8.27;;
27491;SDS011;14927;51.210;6.838;2023-04-15T06:31:09;14.85;;;7.68;;
27491;SDS011;14927;51.210;6.838;2023-04-15T06:33:54;15.43;;;8.40;;
27491;SDS011;14927;51.210;6.838;2023-04-15T06:36:39;14.55;;;7.97;;
27491;SDS011;14927;51.210;6.838;2023-04-15T06:39:24;14.88;;;8.63;;
27491;SDS011;14927;51.210;6.838;2023-04-15T06:42:11;10.77;;;8.18;;
27491;SDS011;14927;51.210;6.838;2023-04-15T06:44:55;13.45;;;8.25;;
27491;SDS011;14927;51.210;6.838;2023-04-15T06:47:40;11.30;;;8.35;;
27491;SDS011;14927;51.210;6.838;2023-04-15T06:50:25;16.00;;;9.00;;
27491;SDS011;14927;51.210;6.838;2023-04-15T06:53:10;13.15;;;8.75;;
27491;SDS011;14927;51.210;6.838;2023-04-15T06:55:55;11.88;;;9.07;;
27491;SDS011;14927;51.210;6.838;2023-04-15T06:58:39;13.80;;;8.27;;
27491;SDS011;14927;51.210;6.838;2023-04-15T07:01:24;11.63;;;7.97;;
27491;SDS011;14927;51.210;6.838;2023-04-15T07:04:09;9.18;;;6.50;;
27491;SDS011;14927;51.210;6.838;2023-04-15T07:06:54;9.27;;;6.72;;
27491;SDS011;14927;51.210;6.838;2023-04-15T07:09:38;7.68;;;5.82;;
27491;SDS011;14927;51.210;6.838;2023-04-15T07:12:23;7.82;;;5.78;;
27491;SDS011;14927;51.210;6.838;2023-04-15T07:15:09;7.13;;;5.15;;
27491;SDS011;14927;51.210;6.838;2023-04-15T07:17:54;10.55;;;5.30;;
27491;SDS011;14927;51.210;6.838;2023-04-15T07:20:38;9.13;;;5.35;;
27491;SDS011;14927;51.210;6.838;2023-04-15T07:23:23;8.65;;;4.80;;
27491;SDS011;14927;51.210;6.838;2023-04-15T07:26:08;8.68;;;5.43;;
27491;SDS011;14927;51.210;6.838;2023-04-15T07:28:53;7.20;;;4.65;;
27491;SDS011;14927;51.210;6.838;2023-04-15T07:31:38;5.95;;;4.47;;
27491;SDS011;14927;51.210;6.838;2023-04-15T07:34:24;8.18;;;5.00;;
27491;SDS011;14927;51.210;6.838;2023-04-15T07:37:09;8.05;;;5.10;;
27491;SDS011;14927;51.210;6.838;2023-04-15T07:39:54;6.85;;;4.97;;
27491;SDS011;14927;51.210;6.838;2023-04-15T07:42:39;7.88;;;5.00;;
27491;SDS011;14927;51.210;6.838;2023-04-15T07:45:24;6.45;;;5.03;;
27491;SDS011;14927;51.210;6.838;2023-04-15T07:48:08;6.80;;;4.30;;
27491;SDS011;14927;51.210;6.838;2023-04-15T07:50:53;4.82;;;3.78;;
27491;SDS011;14927;51.210;6.838;2023-04-15T07:53:38;5.65;;;3.95;;
27491;SDS011;14927;51.210;6.838;2023-04-15T07:56:23;4.50;;;3.90;;
27491;SDS011;14927;51.210;6.838;2023-04-15T07:59:07;6.55;;;4.32;;
27491;SDS011;14927;51.210;6.838;2023-04-15T08:01:53;4.47;;;3.35;;
27491;SDS011;14927;51.210;6.838;2023-04-15T08:04:37;6.18;;;3.00;;
27491;SDS011;14927;51.210;6.838;2023-04-15T08:07:22;5.80;;;2.45;;
27491;SDS011;14927;51.210;6.838;2023-04-15T08:10:07;5.15;;;2.90;;
27491;SDS011;14927;51.210;6.838;2023-04-15T08:12:53;4.30;;;3.08;;
27491;SDS011;14927;51.210;6.838;2023-04-15T08:15:37;3.95;;;3.08;;
27491;SDS011;14927;51.210;6.838;2023-04-15T08:18:22;4.15;;;3.28;;
27491;SDS011;14927;51.210;6.838;2023-04-15T08:21:07;5.60;;;3.47;;
27491;SDS011;14927;51.210;6.838;2023-04-15T08:23:52;4.80;;;3.28;;
27491;SDS011;14927;51.210;6.838;2023-04-15T08:26:37;5.00;;;3.80;;
27491;SDS011;14927;51.210;6.838;2023-04-15T08:29:22;4.45;;;3.65;;
27491;SDS011;14927;51.210;6.838;2023-04-15T08:32:06;3.40;;;3.10;;
27491;SDS011;14927;51.210;6.838;2023-04-15T08:34:52;3.60;;;3.30;;
27491;SDS011;14927;51.210;6.838;2023-04-15T08:37:36;6.45;;;3.75;;
27491;SDS011;14927;51.210;6.838;2023-04-15T08:40:21;4.45;;;3.50;;
27491;SDS011;14927;51.210;6.838;2023-04-15T08:43:14;5.07;;;3.90;;
27491;SDS011;14927;51.210;6.838;2023-04-15T08:46:10;4.75;;;3.95;;
27491;SDS011;14927;51.210;6.838;2023-04-15T08:48:56;4.70;;;4.15;;
27491;SDS011;14927;51.210;6.838;2023-04-15T08:51:41;7.32;;;4.03;;
27491;SDS011;14927;51.210;6.838;2023-04-15T08:54:26;6.45;;;4.32;;
27491;SDS011;14927;51.210;6.838;2023-04-15T08:57:11;6.63;;;4.30;;
27491;SDS011;14927;51.210;6.838;2023-04-15T08:59:56;5.82;;;4.32;;
27491;SDS011;14927;51.210;6.838;2023-04-15T09:02:41;5.72;;;3.97;;
27491;SDS011;14927;51.210;6.838;2023-04-15T09:05:26;6.38;;;4.43;;
27491;SDS011;14927;51.210;6.838;2023-04-15T09:08:15;6.15;;;4.40;;
27491;SDS011;14927;51.210;6.838;2023-04-15T09:11:00;5.93;;;4.10;;
27491;SDS011;14927;51.210;6.838;2023-04-15T09:13:48;9.65;;;4.70;;
27491;SDS011;14927;51.210;6.838;2023-04-15T09:16:54;5.13;;;3.35;;
27491;SDS011;14927;51.210;6.838;2023-04-15T09:19:44;7.13;;;3.15;;
27491;SDS011;14927;51.210;6.838;2023-04-15T09:22:32;7.90;;;4.05;;
27491;SDS011;14927;51.210;6.838;2023-04-15T09:28:11;5.28;;;3.53;;
27491;SDS011;14927;51.210;6.838;2023-04-15T09:31:00;3.80;;;3.30;;
27491;SDS011;14927;51.210;6.838;2023-04-15T09:33:55;4.35;;;3.30;;
27491;SDS011;14927;51.210;6.838;2023-04-15T09:39:50;4.45;;;3.60;;
27491;SDS011;14927;51.210;6.838;2023-04-15T09:42:35;3.83;;;3.45;;
27491;SDS011;14927;51.210;6.838;2023-04-15T09:45:21;3.13;;;2.83;;
27491;SDS011;14927;51.210;6.838;2023-04-15T09:48:17;2.47;;;2.28;;
27491;SDS011;14927;51.210;6.838;2023-04-15T09:51:06;7.07;;;1.63;;
27491;SDS011;14927;51.210;6.838;2023-04-15T09:53:53;1.55;;;1.40;;
27491;SDS011;14927;51.210;6.838;2023-04-15T09:56:39;5.80;;;1.58;;
27491;SDS011;14927;51.210;6.838;2023-04-15T09:59:26;4.18;;;1.42;;
27491;SDS011;14927;51.210;6.838;2023-04-15T10:02:11;2.78;;;2.22;;
27491;SDS011;14927;51.210;6.838;2023-04-15T10:04:57;3.58;;;2.33;;
27491;SDS011;14927;51.210;6.838;2023-04-15T10:07:42;3.58;;;2.00;;
27491;SDS011;14927;51.210;6.838;2023-04-15T10:10:28;2.30;;;1.95;;
27491;SDS011;14927;51.210;6.838;2023-04-15T10:13:13;2.75;;;2.47;;
27491;SDS011;14927;51.210;6.838;2023-04-15T10:16:12;3.25;;;2.40;;
27491;SDS011;14927;51.210;6.838;2023-04-15T10:19:00;3.22;;;2.92;;
27491;SDS011;14927;51.210;6.838;2023-04-15T10:21:47;5.70;;;2.63;;
27491;SDS011;14927;51.210;6.838;2023-04-15T10:24:33;2.92;;;2.63;;
27491;SDS011;14927;51.210;6.838;2023-04-15T10:27:18;2.88;;;2.53;;
27491;SDS011;14927;51.210;6.838;2023-04-15T10:30:04;3.47;;;3.17;;
27491;SDS011;14927;51.210;6.838;2023-04-15T10:32:49;3.38;;;2.92;;
27491;SDS011;14927;51.210;6.838;2023-04-15T10:35:34;7.00;;;3.60;;
27491;SDS011;14927;51.210;6.838;2023-04-15T10:38:37;3.78;;;3.00;;
27491;SDS011;14927;51.210;6.838;2023-04-15T10:41:29;3.65;;;3.35;;
27491;SDS011;14927;51.210;6.838;2023-04-15T10:44:16;3.65;;;3.35;;
27491;SDS011;14927;51.210;6.838;2023-04-15T10:47:03;3.42;;;3.17;;
27491;SDS011;14927;51.210;6.838;2023-04-15T10:49:58;3.15;;;2.85;;
27491;SDS011;14927;51.210;6.838;2023-04-15T10:52:45;3.92;;;3.30;;
27491;SDS011;14927;51.210;6.838;2023-04-15T10:55:33;3.33;;;3.00;;
27491;SDS011;14927;51.210;6.838;2023-04-15T10:58:17;3.13;;;2.83;;
27491;SDS011;14927;51.210;6.838;2023-04-15T11:01:07;2.58;;;2.38;;
27491;SDS011;14927;51.210;6.838;2023-04-15T11:03:51;2.67;;;2.47;;
27491;SDS011;14927;51.210;6.838;2023-04-15T11:06:44;2.38;;;2.17;;
27491;SDS011;14927;51.210;6.838;2023-04-15T11:09:32;3.30;;;2.65;;
27491;SDS011;14927;51.210;6.838;2023-04-15T11:12:17;4.25;;;2.78;;
27491;SDS011;14927;51.210;6.838;2023-04-15T11:18:27;2.70;;;2.22;;
27491;SDS011;14927;51.210;6.838;2023-04-15T11:21:13;2.95;;;2.70;;
27491;SDS011;14927;51.210;6.838;2023-04-15T11:23:58;2.70;;;2.50;;
27491;SDS011;14927;51.210;6.838;2023-04-15T11:26:43;2.72;;;2.50;;
27491;SDS011;14927;51.210;6.838;2023-04-15T11:29:28;3.88;;;2.97;;
27491;SDS011;14927;51.210;6.838;2023-04-15T11:32:14;7.47;;;2.72;;
27491;SDS011;14927;51.210;6.838;2023-04-15T11:34:59;4.78;;;4.00;;
27491;SDS011;14927;51.210;6.838;2023-04-15T11:37:44;1.95;;;1.60;;
27491;SDS011;14927;51.210;6.838;2023-04-15T11:40:29;1.50;;;1.40;;
27491;SDS011;14927;51.210;6.838;2023-04-15T11:43:17;2.63;;;2.42;;
27491;SDS011;14927;51.210;6.838;2023-04-15T11:46:03;6.53;;;4.10;;
27491;SDS011;14927;51.210;6.838;2023-04-15T11:48:48;3.65;;;2.83;;
27491;SDS011;14927;51.210;6.838;2023-04-15T11:51:33;2.35;;;2.15;;
27491;SDS011;14927;51.210;6.838;2023-04-15T11:54:18;5.35;;;2.72;;
27491;SDS011;14927;51.210;6.838;2023-04-15T11:57:03;2.80;;;2.30;;
27491;SDS011;14927;51.210;6.838;2023-04-15T11:59:47;2.30;;;2.10;;
27491;SDS011;14927;51.210;6.838;2023-04-15T12:02:35;3.35;;;2.70;;
27491;SDS011;14927;51.210;6.838;2023-04-15T12:05:20;2.60;;;2.38;;
27491;SDS011;14927;51.210;6.838;2023-04-15T12:08:05;2.85;;;2.60;;
27491;SDS011;14927;51.210;6.838;2023-04-15T12:10:50;2.53;;;2.25;;
27491;SDS011;14927;51.210;6.838;2023-04-15T12:13:34;5.55;;;3.00;;
27491;SDS011;14927;51.210;6.838;2023-04-15T12:16:19;2.13;;;1.92;;
27491;SDS011;14927;51.210;6.838;2023-04-15T12:19:09;4.72;;;2.50;;
27491;SDS011;14927;51.210;6.838;2023-04-15T12:22:02;3.70;;;3.05;;
27491;SDS011;14927;51.210;6.838;2023-04-15T12:24:55;2.55;;;2.28;;
27491;SDS011;14927;51.210;6.838;2023-04-15T12:27:40;4.85;;;2.83;;
27491;SDS011;14927;51.210;6.838;2023-04-15T12:30:25;4.05;;;2.63;;
27491;SDS011;14927;51.210;6.838;2023-04-15T12:33:09;2.75;;;2.22;;
27491;SDS011;14927;51.210;6.838;2023-04-15T12:35:54;2.85;;;2.33;;
27491;SDS011;14927;51.210;6.838;2023-04-15T12:38:39;1.70;;;1.60;;
27491;SDS011;14927;51.210;6.838;2023-04-15T12:41:23;3.88;;;2.03;;
27491;SDS011;14927;51.210;6.838;2023-04-15T12:44:08;2.05;;;1.85;;
27491;SDS011;14927;51.210;6.838;2023-04-15T12:46:53;1.92;;;1.83;;
27491;SDS011;14927;51.210;6.838;2023-04-15T12:49:38;2.63;;;1.92;;
27491;SDS011;14927;51.210;6.838;2023-04-15T12:52:23;2.13;;;1.92;;
27491;SDS011;14927;51.210;6.838;2023-04-15T12:55:08;3.25;;;2.17;;
27491;SDS011;14927;51.210;6.838;2023-04-15T12:57:53;2.13;;;1.92;;
27491;SDS011;14927;51.210;6.838;2023-04-15T13:00:37;2.78;;;2.58;;
27491;SDS011;14927;51.210;6.838;2023-04-15T13:03:22;4.05;;;2.90;;
27491;SDS011;14927;51.210;6.838;2023-04-15T13:06:07;2.70;;;2.15;;
27491;SDS011;14927;51.210;6.838;2023-04-15T13:08:54;2.28;;;2.08;;
27491;SDS011;14927;51.210;6.838;2023-04-15T13:11:38;2.15;;;1.92;;
27491;SDS011;14927;51.210;6.838;2023-04-15T13:14:24;2.55;;;2.17;;
27491;SDS011;14927;51.210;6.838;2023-04-15T13:17:08;5.15;;;2.63;;
27491;SDS011;14927;51.210;6.838;2023-04-15T13:19:54;3.60;;;2.10;;
27491;SDS011;14927;51.210;6.838;2023-04-15T13:22:38;2.40;;;1.83;;
27491;SDS011;14927;51.210;6.838;2023-04-15T13:25:23;3.80;;;1.80;;
27491;SDS011;14927;51.210;6.838;2023-04-15T13:28:11;2.63;;;1.90;;
27491;SDS011;14927;51.210;6.838;2023-04-15T13:30:56;3.58;;;2.42;;
27491;SDS011;14927;51.210;6.838;2023-04-15T13:33:40;1.92;;;1.77;;
27491;SDS011;14927;51.210;6.838;2023-04-15T13:36:25;2.42;;;1.55;;
27491;SDS011;14927;51.210;6.838;2023-04-15T13:39:10;3.42;;;1.70;;
27491;SDS011;14927;51.210;6.838;2023-04-15T13:41:54;2.05;;;1.77;;
27491;SDS011;14927;51.210;6.838;2023-04-15T13:44:39;1.77;;;1.65;;
27491;SDS011;14927;51.210;6.838;2023-04-15T13:47:23;2.58;;;1.92;;
27491;SDS011;14927;51.210;6.838;2023-04-15T13:50:08;4.68;;;2.30;;
27491;SDS011;14927;51.210;6.838;2023-04-15T13:52:54;4.78;;;2.40;;
27491;SDS011;14927;51.210;6.838;2023-04-15T13:55:38;3.58;;;3.00;;
27491;SDS011;14927;51.210;6.838;2023-04-15T13:58:26;7.82;;;3.83;;
27491;SDS011;14927;51.210;6.838;2023-04-15T14:01:10;7.93;;;2.97;;
27491;SDS011;14927;51.210;6.838;2023-04-15T14:03:55;5.57;;;2.63;;
27491;SDS011;14927;51.210;6.838;2023-04-15T14:06:40;9.68;;;3.05;;
27491;SDS011;14927;51.210;6.838;2023-04-15T14:09:24;8.38;;;2.63;;
27491;SDS011;14927;51.210;6.838;2023-04-15T14:12:09;3.97;;;2.97;;
27491;SDS011;14927;51.210;6.838;2023-04-15T14:14:53;3.78;;;2.35;;
27491;SDS011;14927;51.210;6.838;2023-04-15T14:17:38;7.30;;;2.85;;
27491;SDS011;14927;51.210;6.838;2023-04-15T14:20:24;8.18;;;3.28;;
27491;SDS011;14927;51.210;6.838;2023-04-15T14:23:09;5.32;;;3.60;;
27491;SDS011;14927;51.210;6.838;2023-04-15T14:25:53;6.38;;;4.22;;
27491;SDS011;14927;51.210;6.838;2023-04-15T14:28:38;4.55;;;3.25;;
27491;SDS011;14927;51.210;6.838;2023-04-15T14:31:23;5.22;;;2.97;;
27491;SDS011;14927;51.210;6.838;2023-04-15T14:34:07;3.95;;;3.20;;
27491;SDS011;14927;51.210;6.838;2023-04-15T14:36:52;4.25;;;3.17;;
27491;SDS011;14927;51.210;6.838;2023-04-15T14:39:37;6.68;;;3.53;;
27491;SDS011;14927;51.210;6.838;2023-04-15T14:42:21;4.72;;;2.45;;
27491;SDS011;14927;51.210;6.838;2023-04-15T14:45:06;5.65;;;2.58;;
27491;SDS011;14927;51.210;6.838;2023-04-15T14:47:51;4.55;;;2.42;;
27491;SDS011;14927;51.210;6.838;2023-04-15T14:50:36;4.30;;;2.35;;
27491;SDS011;14927;51.210;6.838;2023-04-15T14:53:21;3.63;;;2.65;;
27491;SDS011;14927;51.210;6.838;2023-04-15T14:56:06;5.07;;;2.50;;
27491;SDS011;14927;51.210;6.838;2023-04-15T14:58:50;4.70;;;2.40;;
27491;SDS011;14927;51.210;6.838;2023-04-15T15:01:36;2.55;;;2.30;;
27491;SDS011;14927;51.210;6.838;2023-04-15T15:04:21;4.47;;;2.63;;
27491;SDS011;14927;51.210;6.838;2023-04-15T15:07:05;4.40;;;3.40;;
27491;SDS011;14927;51.210;6.838;2023-04-15T15:09:50;6.15;;;4.13;;
27491;SDS011;14927;51.210;6.838;2023-04-15T15:12:35;4.45;;;3.20;;
27491;SDS011;14927;51.210;6.838;2023-04-15T15:15:20;3.08;;;2.40;;
27491;SDS011;14927;51.210;6.838;2023-04-15T15:18:04;2.10;;;1.90;;
27491;SDS011;14927;51.210;6.838;2023-04-15T15:20:49;2.60;;;2.17;;
27491;SDS011;14927;51.210;6.838;2023-04-15T15:23:34;3.47;;;2.22;;
27491;SDS011;14927;51.210;6.838;2023-04-15T15:26:18;4.65;;;2.88;;
27491;SDS011;14927;51.210;6.838;2023-04-15T15:29:03;5.60;;;3.40;;
27491;SDS011;14927;51.210;6.838;2023-04-15T15:31:47;8.07;;;3.42;;
27491;SDS011;14927;51.210;6.838;2023-04-15T15:34:32;3.47;;;2.90;;
27491;SDS011;14927;51.210;6.838;2023-04-15T15:37:17;5.15;;;3.17;;
27491;SDS011;14927;51.210;6.838;2023-04-15T15:40:05;4.35;;;2.88;;
27491;SDS011;14927;51.210;6.838;2023-04-15T15:42:51;3.53;;;2.85;;
27491;SDS011;14927;51.210;6.838;2023-04-15T15:45:35;3.45;;;2.67;;
27491;SDS011;14927;51.210;6.838;2023-04-15T15:48:21;2.85;;;2.13;;
27491;SDS011;14927;51.210;6.838;2023-04-15T15:51:07;3.08;;;1.85;;
27491;SDS011;14927;51.210;6.838;2023-04-15T15:53:52;4.10;;;2.47;;
27491;SDS011;14927;51.210;6.838;2023-04-15T15:56:36;2.58;;;1.77;;
27491;SDS011;14927;51.210;6.838;2023-04-15T15:59:22;2.00;;;1.65;;
27491;SDS011;14927;51.210;6.838;2023-04-15T16:02:11;3.28;;;2.05;;
27491;SDS011;14927;51.210;6.838;2023-04-15T16:04:56;2.55;;;1.77;;
27491;SDS011;14927;51.210;6.838;2023-04-15T16:07:41;2.78;;;1.75;;
27491;SDS011;14927;51.210;6.838;2023-04-15T16:10:26;4.28;;;2.03;;
27491;SDS011;14927;51.210;6.838;2023-04-15T16:13:10;3.50;;;2.25;;
27491;SDS011;14927;51.210;6.838;2023-04-15T16:15:55;2.67;;;2.10;;
27491;SDS011;14927;51.210;6.838;2023-04-15T16:18:40;2.97;;;2.05;;
27491;SDS011;14927;51.210;6.838;2023-04-15T16:21:24;3.40;;;2.28;;
27491;SDS011;14927;51.210;6.838;2023-04-15T16:24:10;2.95;;;1.70;;
27491;SDS011;14927;51.210;6.838;2023-04-15T16:26:54;6.03;;;1.73;;
27491;SDS011;14927;51.210;6.838;2023-04-15T16:29:41;4.28;;;1.60;;
27491;SDS011;14927;51.210;6.838;2023-04-15T16:32:26;2.75;;;1.73;;
27491;SDS011;14927;51.210;6.838;2023-04-15T16:35:11;2.75;;;1.55;;
27491;SDS011;14927;51.210;6.838;2023-04-15T16:37:57;1.92;;;1.55;;
27491;SDS011;14927;51.210;6.838;2023-04-15T16:40:41;2.55;;;1.70;;